KTPA/TPA METAR and TAF weather

Enter ICAO airport designator
Station Type Date Time Source
KTPA METAR 2021/03/08 01:53 UTC NOAA

KTPA 080153Z VRB05KT 10SM CLR 16/00 A3033 RMK AO2 SLP270 T01560000 $


Station Type Date Time Source
KTPA Decoded METAR 2021/03/08 01:53 UTC NOAA

TAMPA INTERNATIONAL AIRPORT , FL, United States (KTPA) 27-58N 082-32W 11M
Mar 07, 2021 - 08:53 PM EST / 2021.03.08 0153 UTC
Wind: Variable at 6 MPH (5 KT):0
Visibility: 10 mile(s):0
Sky conditions: clear
Temperature: 60.1 F (15.6 C)
Dew Point: 32.0 F (0.0 C)
Relative Humidity: 34%
Pressure (altimeter): 30.33 in. Hg (1027 hPa)
ob: KTPA 080153Z VRB05KT 10SM CLR 16/00 A3033 RMK AO2 SLP270 T01560000
cycle: 2

Station Type Date Time Source
KTPA TAF 2021/03/08 03:36 UTC NOAA

TAF
AMD KTPA 080232Z 0803/0906 VRB04KT P6SM SKC
FM081600 05010G17KT P6SM SKC
FM082300 05007KT P6SM SKC

Example: see airport list